sensor_id;sensor_type;location;lat;lon;timestamp;P1;durP1;ratioP1;P2;durP2;ratioP2
61675;SDS011;47574;52.090;5.244;2023-06-22T00:00:02;7.9;;;6.1;;
61675;SDS011;47574;52.090;5.244;2023-06-22T00:01:38;7.7;;;6.0;;
61675;SDS011;47574;52.090;5.244;2023-06-22T00:03:14;6.5;;;5.8;;
61675;SDS011;47574;52.090;5.244;2023-06-22T00:06:27;7.1;;;6.4;;
61675;SDS011;47574;52.090;5.244;2023-06-22T00:08:03;8.31;;;6.1;;
61675;SDS011;47574;52.090;5.244;2023-06-22T00:09:40;7.9;;;6.4;;
61675;SDS011;47574;52.090;5.244;2023-06-22T00:12:52;8.5;;;6.5;;
61675;SDS011;47574;52.090;5.244;2023-06-22T00:14:28;10.21;;;7.0;;
61675;SDS011;47574;52.090;5.244;2023-06-22T00:16:05;7.1;;;6.4;;
61675;SDS011;47574;52.090;5.244;2023-06-22T00:17:41;7.3;;;6.5;;
61675;SDS011;47574;52.090;5.244;2023-06-22T00:20:54;8.5;;;6.9;;
61675;SDS011;47574;52.090;5.244;2023-06-22T00:22:30;8.5;;;7.1;;
61675;SDS011;47574;52.090;5.244;2023-06-22T00:24:06;9.71;;;7.3;;
61675;SDS011;47574;52.090;5.244;2023-06-22T00:27:19;10.9;;;7.0;;
61675;SDS011;47574;52.090;5.244;2023-06-22T00:28:55;8.5;;;7.6;;
61675;SDS011;47574;52.090;5.244;2023-06-22T00:30:31;9.4;;;7.2;;
61675;SDS011;47574;52.090;5.244;2023-06-22T00:33:44;8.5;;;6.9;;
61675;SDS011;47574;52.090;5.244;2023-06-22T00:35:21;8.2;;;6.5;;
61675;SDS011;47574;52.090;5.244;2023-06-22T00:36:57;9.71;;;7.2;;
61675;SDS011;47574;52.090;5.244;2023-06-22T00:38:33;7.6;;;6.7;;
61675;SDS011;47574;52.090;5.244;2023-06-22T00:41:46;7.2;;;6.4;;
61675;SDS011;47574;52.090;5.244;2023-06-22T00:43:23;9.71;;;6.6;;
61675;SDS011;47574;52.090;5.244;2023-06-22T00:44:59;7.4;;;6.4;;
61675;SDS011;47574;52.090;5.244;2023-06-22T00:48:11;6.4;;;5.7;;
61675;SDS011;47574;52.090;5.244;2023-06-22T00:49:49;8.81;;;6.3;;
61675;SDS011;47574;52.090;5.244;2023-06-22T00:51:26;8.2;;;6.6;;
61675;SDS011;47574;52.090;5.244;2023-06-22T00:54:43;6.4;;;5.8;;
61675;SDS011;47574;52.090;5.244;2023-06-22T00:56:20;6.3;;;5.7;;
61675;SDS011;47574;52.090;5.244;2023-06-22T00:57:56;8.4;;;6.1;;
61675;SDS011;47574;52.090;5.244;2023-06-22T00:59:32;9.31;;;6.5;;
61675;SDS011;47574;52.090;5.244;2023-06-22T01:02:45;7.4;;;5.8;;
61675;SDS011;47574;52.090;5.244;2023-06-22T01:04:24;7.8;;;5.5;;
61675;SDS011;47574;52.090;5.244;2023-06-22T01:06:10;7.0;;;5.7;;
61675;SDS011;47574;52.090;5.244;2023-06-22T01:07:58;7.0;;;6.3;;
61675;SDS011;47574;52.090;5.244;2023-06-22T01:11:28;6.2;;;5.7;;
61675;SDS011;47574;52.090;5.244;2023-06-22T01:13:15;7.9;;;6.4;;
61675;SDS011;47574;52.090;5.244;2023-06-22T01:15:01;6.6;;;5.9;;
61675;SDS011;47574;52.090;5.244;2023-06-22T01:16:44;7.6;;;6.2;;
61675;SDS011;47574;52.090;5.244;2023-06-22T01:18:23;7.8;;;6.4;;
61675;SDS011;47574;52.090;5.244;2023-06-22T01:21:44;6.6;;;5.9;;
61675;SDS011;47574;52.090;5.244;2023-06-22T01:23:26;7.9;;;6.5;;
61675;SDS011;47574;52.090;5.244;2023-06-22T01:25:10;8.1;;;6.7;;
61675;SDS011;47574;52.090;5.244;2023-06-22T01:26:52;7.4;;;6.6;;
61675;SDS011;47574;52.090;5.244;2023-06-22T01:30:21;8.6;;;7.0;;
61675;SDS011;47574;52.090;5.244;2023-06-22T01:32:00;10.1;;;7.3;;
61675;SDS011;47574;52.090;5.244;2023-06-22T01:33:41;9.21;;;7.7;;
61675;SDS011;47574;52.090;5.244;2023-06-22T01:35:19;7.7;;;6.9;;
61675;SDS011;47574;52.090;5.244;2023-06-22T01:38:35;8.0;;;7.1;;
61675;SDS011;47574;52.090;5.244;2023-06-22T01:40:13;7.8;;;7.0;;
61675;SDS011;47574;52.090;5.244;2023-06-22T01:41:51;9.1;;;7.4;;
61675;SDS011;47574;52.090;5.244;2023-06-22T01:43:29;8.31;;;6.5;;
61675;SDS011;47574;52.090;5.244;2023-06-22T01:46:43;9.0;;;7.1;;
61675;SDS011;47574;52.090;5.244;2023-06-22T01:48:20;9.21;;;7.4;;
61675;SDS011;47574;52.090;5.244;2023-06-22T01:49:57;9.4;;;7.1;;
61675;SDS011;47574;52.090;5.244;2023-06-22T01:53:10;8.5;;;7.3;;
61675;SDS011;47574;52.090;5.244;2023-06-22T01:54:46;8.9;;;7.0;;
61675;SDS011;47574;52.090;5.244;2023-06-22T01:56:23;10.7;;;7.4;;
61675;SDS011;47574;52.090;5.244;2023-06-22T01:58:01;10.4;;;7.5;;
61675;SDS011;47574;52.090;5.244;2023-06-22T02:01:24;8.6;;;7.7;;
61675;SDS011;47574;52.090;5.244;2023-06-22T02:03:08;8.6;;;7.7;;
61675;SDS011;47574;52.090;5.244;2023-06-22T02:04:51;8.6;;;7.7;;
61675;SDS011;47574;52.090;5.244;2023-06-22T02:06:34;10.3;;;7.8;;
61675;SDS011;47574;52.090;5.244;2023-06-22T02:09:55;11.1;;;8.31;;
61675;SDS011;47574;52.090;5.244;2023-06-22T02:11:35;10.9;;;7.7;;
61675;SDS011;47574;52.090;5.244;2023-06-22T02:13:13;9.5;;;8.1;;
61675;SDS011;47574;52.090;5.244;2023-06-22T02:14:51;9.6;;;7.9;;
61675;SDS011;47574;52.090;5.244;2023-06-22T02:18:07;9.4;;;7.8;;
61675;SDS011;47574;52.090;5.244;2023-06-22T02:19:44;8.6;;;7.7;;
61675;SDS011;47574;52.090;5.244;2023-06-22T02:21:20;9.81;;;7.9;;
61675;SDS011;47574;52.090;5.244;2023-06-22T02:24:33;11.0;;;8.1;;
61675;SDS011;47574;52.090;5.244;2023-06-22T02:26:09;9.4;;;8.0;;
61675;SDS011;47574;52.090;5.244;2023-06-22T02:27:45;10.21;;;8.2;;
61675;SDS011;47574;52.090;5.244;2023-06-22T02:30:58;8.1;;;7.3;;
61675;SDS011;47574;52.090;5.244;2023-06-22T02:32:34;10.4;;;8.0;;
61675;SDS011;47574;52.090;5.244;2023-06-22T02:34:11;10.0;;;8.0;;
61675;SDS011;47574;52.090;5.244;2023-06-22T02:35:47;8.4;;;7.5;;
61675;SDS011;47574;52.090;5.244;2023-06-22T02:39:00;8.1;;;7.3;;
61675;SDS011;47574;52.090;5.244;2023-06-22T02:40:36;11.7;;;8.5;;
61675;SDS011;47574;52.090;5.244;2023-06-22T02:42:12;9.1;;;7.7;;
61675;SDS011;47574;52.090;5.244;2023-06-22T02:45:24;8.2;;;7.2;;
61675;SDS011;47574;52.090;5.244;2023-06-22T02:47:01;8.1;;;7.3;;
61675;SDS011;47574;52.090;5.244;2023-06-22T02:48:38;8.31;;;7.5;;
61675;SDS011;47574;52.090;5.244;2023-06-22T02:51:51;9.71;;;7.4;;
61675;SDS011;47574;52.090;5.244;2023-06-22T02:53:27;11.9;;;8.1;;
61675;SDS011;47574;52.090;5.244;2023-06-22T02:55:04;8.31;;;7.4;;
61675;SDS011;47574;52.090;5.244;2023-06-22T02:56:42;9.4;;;8.1;;
61675;SDS011;47574;52.090;5.244;2023-06-22T02:59:54;10.21;;;7.9;;
61675;SDS011;47574;52.090;5.244;2023-06-22T03:01:30;9.6;;;8.0;;
61675;SDS011;47574;52.090;5.244;2023-06-22T03:03:06;9.9;;;8.2;;
61675;SDS011;47574;52.090;5.244;2023-06-22T03:06:20;9.71;;;8.0;;
61675;SDS011;47574;52.090;5.244;2023-06-22T03:07:56;10.1;;;8.4;;
61675;SDS011;47574;52.090;5.244;2023-06-22T03:09:32;10.1;;;7.7;;
61675;SDS011;47574;52.090;5.244;2023-06-22T03:12:46;10.3;;;8.31;;
61675;SDS011;47574;52.090;5.244;2023-06-22T03:14:23;9.21;;;7.7;;
61675;SDS011;47574;52.090;5.244;2023-06-22T03:15:59;10.5;;;8.2;;
61675;SDS011;47574;52.090;5.244;2023-06-22T03:17:35;9.0;;;7.9;;
61675;SDS011;47574;52.090;5.244;2023-06-22T03:20:48;10.0;;;8.31;;
61675;SDS011;47574;52.090;5.244;2023-06-22T03:22:25;9.0;;;8.0;;
61675;SDS011;47574;52.090;5.244;2023-06-22T03:24:01;10.21;;;8.4;;
61675;SDS011;47574;52.090;5.244;2023-06-22T03:27:13;9.71;;;8.0;;
61675;SDS011;47574;52.090;5.244;2023-06-22T03:28:49;9.21;;;8.1;;
61675;SDS011;47574;52.090;5.244;2023-06-22T03:30:25;9.0;;;8.1;;
61675;SDS011;47574;52.090;5.244;2023-06-22T03:33:38;9.1;;;7.8;;
61675;SDS011;47574;52.090;5.244;2023-06-22T03:35:14;9.1;;;7.5;;
61675;SDS011;47574;52.090;5.244;2023-06-22T03:36:50;9.0;;;7.5;;
61675;SDS011;47574;52.090;5.244;2023-06-22T03:38:26;8.1;;;7.3;;
61675;SDS011;47574;52.090;5.244;2023-06-22T03:41:40;10.6;;;7.9;;
61675;SDS011;47574;52.090;5.244;2023-06-22T03:43:16;10.0;;;8.5;;
61675;SDS011;47574;52.090;5.244;2023-06-22T03:44:52;11.1;;;8.9;;
61675;SDS011;47574;52.090;5.244;2023-06-22T03:48:04;10.5;;;8.6;;
61675;SDS011;47574;52.090;5.244;2023-06-22T03:49:41;9.4;;;8.4;;
61675;SDS011;47574;52.090;5.244;2023-06-22T03:51:17;11.1;;;9.6;;
61675;SDS011;47574;52.090;5.244;2023-06-22T03:54:29;11.2;;;9.5;;
61675;SDS011;47574;52.090;5.244;2023-06-22T03:56:06;11.7;;;10.3;;
61675;SDS011;47574;52.090;5.244;2023-06-22T03:57:42;12.7;;;10.8;;
61675;SDS011;47574;52.090;5.244;2023-06-22T04:00:55;11.2;;;10.1;;
61675;SDS011;47574;52.090;5.244;2023-06-22T04:02:31;11.6;;;9.21;;
61675;SDS011;47574;52.090;5.244;2023-06-22T04:04:07;12.4;;;10.3;;
61675;SDS011;47574;52.090;5.244;2023-06-22T04:05:43;13.0;;;10.0;;
61675;SDS011;47574;52.090;5.244;2023-06-22T04:08:56;12.5;;;10.8;;
61675;SDS011;47574;52.090;5.244;2023-06-22T04:10:33;14.3;;;11.3;;
61675;SDS011;47574;52.090;5.244;2023-06-22T04:12:09;12.8;;;10.7;;
61675;SDS011;47574;52.090;5.244;2023-06-22T04:15:21;14.1;;;11.7;;
61675;SDS011;47574;52.090;5.244;2023-06-22T04:16:57;12.5;;;10.5;;
61675;SDS011;47574;52.090;5.244;2023-06-22T04:18:33;12.2;;;10.9;;
61675;SDS011;47574;52.090;5.244;2023-06-22T04:21:46;12.5;;;10.9;;
61675;SDS011;47574;52.090;5.244;2023-06-22T04:23:22;14.8;;;11.8;;
61675;SDS011;47574;52.090;5.244;2023-06-22T04:24:58;13.9;;;11.7;;
61675;SDS011;47574;52.090;5.244;2023-06-22T04:26:34;14.4;;;12.1;;
61675;SDS011;47574;52.090;5.244;2023-06-22T04:29:47;14.6;;;12.2;;
61675;SDS011;47574;52.090;5.244;2023-06-22T04:31:23;13.9;;;11.9;;
61675;SDS011;47574;52.090;5.244;2023-06-22T04:32:59;15.8;;;12.4;;
61675;SDS011;47574;52.090;5.244;2023-06-22T04:36:11;16.9;;;12.7;;
61675;SDS011;47574;52.090;5.244;2023-06-22T04:37:48;14.8;;;12.8;;
61675;SDS011;47574;52.090;5.244;2023-06-22T04:39:24;14.5;;;11.9;;
61675;SDS011;47574;52.090;5.244;2023-06-22T04:42:37;13.9;;;12.4;;
61675;SDS011;47574;52.090;5.244;2023-06-22T04:44:15;14.9;;;12.5;;
61675;SDS011;47574;52.090;5.244;2023-06-22T04:45:53;15.0;;;12.5;;
61675;SDS011;47574;52.090;5.244;2023-06-22T04:47:30;14.8;;;12.7;;
61675;SDS011;47574;52.090;5.244;2023-06-22T04:50:43;16.4;;;13.3;;
61675;SDS011;47574;52.090;5.244;2023-06-22T04:52:19;15.7;;;14.0;;
61675;SDS011;47574;52.090;5.244;2023-06-22T04:53:55;16.7;;;13.6;;
61675;SDS011;47574;52.090;5.244;2023-06-22T04:57:08;16.11;;;14.0;;
61675;SDS011;47574;52.090;5.244;2023-06-22T04:58:44;16.3;;;13.5;;
61675;SDS011;47574;52.090;5.244;2023-06-22T05:00:20;16.2;;;13.8;;
61675;SDS011;47574;52.090;5.244;2023-06-22T05:03:33;15.4;;;13.8;;
61675;SDS011;47574;52.090;5.244;2023-06-22T05:05:10;15.0;;;13.4;;
61675;SDS011;47574;52.090;5.244;2023-06-22T05:06:47;15.5;;;13.1;;
61675;SDS011;47574;52.090;5.244;2023-06-22T05:08:23;17.41;;;14.7;;
61675;SDS011;47574;52.090;5.244;2023-06-22T05:11:35;17.2;;;14.2;;
61675;SDS011;47574;52.090;5.244;2023-06-22T05:13:11;19.2;;;14.7;;
61675;SDS011;47574;52.090;5.244;2023-06-22T05:14:48;16.0;;;14.3;;
61675;SDS011;47574;52.090;5.244;2023-06-22T05:18:00;18.11;;;14.5;;
61675;SDS011;47574;52.090;5.244;2023-06-22T05:19:36;17.0;;;14.6;;
61675;SDS011;47574;52.090;5.244;2023-06-22T05:21:12;16.4;;;14.6;;
61675;SDS011;47574;52.090;5.244;2023-06-22T05:24:24;16.3;;;14.2;;
61675;SDS011;47574;52.090;5.244;2023-06-22T05:26:01;18.11;;;14.5;;
61675;SDS011;47574;52.090;5.244;2023-06-22T05:27:37;18.0;;;14.9;;
61675;SDS011;47574;52.090;5.244;2023-06-22T05:30:49;17.3;;;15.0;;
61675;SDS011;47574;52.090;5.244;2023-06-22T05:32:25;17.2;;;13.8;;
61675;SDS011;47574;52.090;5.244;2023-06-22T05:34:01;19.2;;;14.5;;
61675;SDS011;47574;52.090;5.244;2023-06-22T05:35:38;16.61;;;14.2;;
61675;SDS011;47574;52.090;5.244;2023-06-22T05:38:50;18.61;;;14.6;;
61675;SDS011;47574;52.090;5.244;2023-06-22T05:40:27;18.11;;;15.4;;
61675;SDS011;47574;52.090;5.244;2023-06-22T05:42:04;20.0;;;16.2;;
61675;SDS011;47574;52.090;5.244;2023-06-22T05:45:17;21.3;;;16.9;;
61675;SDS011;47574;52.090;5.244;2023-06-22T05:46:53;21.7;;;17.11;;
61675;SDS011;47574;52.090;5.244;2023-06-22T05:48:29;25.8;;;16.9;;
61675;SDS011;47574;52.090;5.244;2023-06-22T05:51:43;20.11;;;17.3;;
61675;SDS011;47574;52.090;5.244;2023-06-22T05:53:20;21.3;;;17.61;;
61675;SDS011;47574;52.090;5.244;2023-06-22T05:54:56;26.1;;;18.41;;
61675;SDS011;47574;52.090;5.244;2023-06-22T05:56:32;23.0;;;18.0;;
61675;SDS011;47574;52.090;5.244;2023-06-22T05:59:44;22.4;;;18.0;;
61675;SDS011;47574;52.090;5.244;2023-06-22T06:01:20;24.8;;;19.5;;
61675;SDS011;47574;52.090;5.244;2023-06-22T06:02:56;24.2;;;19.2;;
61675;SDS011;47574;52.090;5.244;2023-06-22T06:06:09;27.0;;;20.41;;
61675;SDS011;47574;52.090;5.244;2023-06-22T06:07:45;23.3;;;18.91;;
61675;SDS011;47574;52.090;5.244;2023-06-22T06:09:22;25.8;;;20.6;;
61675;SDS011;47574;52.090;5.244;2023-06-22T06:12:34;23.8;;;19.5;;
61675;SDS011;47574;52.090;5.244;2023-06-22T06:14:10;23.1;;;18.7;;
61675;SDS011;47574;52.090;5.244;2023-06-22T06:15:47;24.1;;;20.6;;
61675;SDS011;47574;52.090;5.244;2023-06-22T06:18:59;24.0;;;20.2;;
61675;SDS011;47574;52.090;5.244;2023-06-22T06:20:35;24.4;;;20.0;;
61675;SDS011;47574;52.090;5.244;2023-06-22T06:22:11;24.8;;;20.2;;
61675;SDS011;47574;52.090;5.244;2023-06-22T06:23:48;25.4;;;20.5;;
61675;SDS011;47574;52.090;5.244;2023-06-22T06:27:00;26.1;;;20.0;;
61675;SDS011;47574;52.090;5.244;2023-06-22T06:28:36;25.8;;;19.61;;
61675;SDS011;47574;52.090;5.244;2023-06-22T06:30:13;22.8;;;19.0;;
61675;SDS011;47574;52.090;5.244;2023-06-22T06:33:27;24.5;;;19.8;;
61675;SDS011;47574;52.090;5.244;2023-06-22T06:35:03;24.0;;;19.3;;
61675;SDS011;47574;52.090;5.244;2023-06-22T06:36:40;23.7;;;19.41;;
61675;SDS011;47574;52.090;5.244;2023-06-22T06:39:52;23.5;;;19.0;;
61675;SDS011;47574;52.090;5.244;2023-06-22T06:41:29;23.2;;;18.41;;
61675;SDS011;47574;52.090;5.244;2023-06-22T06:43:05;24.6;;;19.0;;
61675;SDS011;47574;52.090;5.244;2023-06-22T06:44:41;24.6;;;19.0;;
61675;SDS011;47574;52.090;5.244;2023-06-22T06:47:53;23.1;;;18.0;;
61675;SDS011;47574;52.090;5.244;2023-06-22T06:49:29;25.4;;;18.7;;
61675;SDS011;47574;52.090;5.244;2023-06-22T06:51:05;24.8;;;18.3;;
61675;SDS011;47574;52.090;5.244;2023-06-22T06:54:18;23.2;;;19.3;;
61675;SDS011;47574;52.090;5.244;2023-06-22T06:55:54;27.4;;;19.0;;
61675;SDS011;47574;52.090;5.244;2023-06-22T06:57:30;27.1;;;18.5;;
61675;SDS011;47574;52.090;5.244;2023-06-22T07:00:42;21.0;;;17.3;;
61675;SDS011;47574;52.090;5.244;2023-06-22T07:02:19;19.7;;;15.9;;
61675;SDS011;47574;52.090;5.244;2023-06-22T07:03:55;22.1;;;17.7;;
61675;SDS011;47574;52.090;5.244;2023-06-22T07:07:07;21.7;;;15.7;;
61675;SDS011;47574;52.090;5.244;2023-06-22T07:08:43;23.6;;;15.9;;
61675;SDS011;47574;52.090;5.244;2023-06-22T07:10:19;24.1;;;17.11;;
61675;SDS011;47574;52.090;5.244;2023-06-22T07:11:56;21.3;;;15.8;;
61675;SDS011;47574;52.090;5.244;2023-06-22T07:15:08;20.11;;;15.9;;
61675;SDS011;47574;52.090;5.244;2023-06-22T07:16:45;16.3;;;13.9;;
61675;SDS011;47574;52.090;5.244;2023-06-22T07:18:21;16.3;;;13.9;;
61675;SDS011;47574;52.090;5.244;2023-06-22T07:21:33;15.0;;;11.7;;
61675;SDS011;47574;52.090;5.244;2023-06-22T07:23:10;14.1;;;10.9;;
61675;SDS011;47574;52.090;5.244;2023-06-22T07:24:46;13.2;;;11.1;;
61675;SDS011;47574;52.090;5.244;2023-06-22T07:27:59;15.8;;;11.0;;
61675;SDS011;47574;52.090;5.244;2023-06-22T07:29:38;13.9;;;12.1;;
61675;SDS011;47574;52.090;5.244;2023-06-22T07:31:14;16.8;;;11.7;;
61675;SDS011;47574;52.090;5.244;2023-06-22T07:32:50;14.8;;;11.8;;
61675;SDS011;47574;52.090;5.244;2023-06-22T07:36:02;15.0;;;11.8;;
61675;SDS011;47574;52.090;5.244;2023-06-22T07:37:39;15.9;;;11.9;;
61675;SDS011;47574;52.090;5.244;2023-06-22T07:39:15;15.1;;;11.8;;
61675;SDS011;47574;52.090;5.244;2023-06-22T07:42:28;14.7;;;12.1;;
61675;SDS011;47574;52.090;5.244;2023-06-22T07:44:04;15.0;;;12.1;;
61675;SDS011;47574;52.090;5.244;2023-06-22T07:45:40;14.9;;;12.3;;
61675;SDS011;47574;52.090;5.244;2023-06-22T07:48:52;16.0;;;12.5;;
61675;SDS011;47574;52.090;5.244;2023-06-22T07:50:28;13.9;;;12.0;;
61675;SDS011;47574;52.090;5.244;2023-06-22T07:52:05;15.3;;;13.2;;
61675;SDS011;47574;52.090;5.244;2023-06-22T07:53:42;18.3;;;13.1;;
61675;SDS011;47574;52.090;5.244;2023-06-22T07:56:55;16.3;;;12.3;;
61675;SDS011;47574;52.090;5.244;2023-06-22T07:58:31;15.7;;;12.2;;
61675;SDS011;47574;52.090;5.244;2023-06-22T08:00:08;15.4;;;12.2;;
61675;SDS011;47574;52.090;5.244;2023-06-22T08:03:22;13.7;;;12.0;;
61675;SDS011;47574;52.090;5.244;2023-06-22T08:04:58;13.8;;;11.1;;
61675;SDS011;47574;52.090;5.244;2023-06-22T08:06:34;13.8;;;10.21;;
61675;SDS011;47574;52.090;5.244;2023-06-22T08:09:47;11.5;;;9.1;;
61675;SDS011;47574;52.090;5.244;2023-06-22T08:11:24;11.0;;;8.81;;
61675;SDS011;47574;52.090;5.244;2023-06-22T08:13:01;11.3;;;8.81;;
61675;SDS011;47574;52.090;5.244;2023-06-22T08:14:38;10.7;;;9.6;;
61675;SDS011;47574;52.090;5.244;2023-06-22T08:17:50;13.7;;;9.31;;
61675;SDS011;47574;52.090;5.244;2023-06-22T08:19:27;14.6;;;9.6;;
61675;SDS011;47574;52.090;5.244;2023-06-22T08:21:04;9.1;;;8.2;;
61675;SDS011;47574;52.090;5.244;2023-06-22T08:24:17;8.6;;;7.5;;
61675;SDS011;47574;52.090;5.244;2023-06-22T08:25:53;9.5;;;7.2;;
61675;SDS011;47574;52.090;5.244;2023-06-22T08:27:29;7.6;;;6.8;;
61675;SDS011;47574;52.090;5.244;2023-06-22T08:30:41;8.6;;;6.4;;
61675;SDS011;47574;52.090;5.244;2023-06-22T08:32:18;8.1;;;6.7;;
61675;SDS011;47574;52.090;5.244;2023-06-22T08:33:54;9.5;;;6.8;;
61675;SDS011;47574;52.090;5.244;2023-06-22T08:35:30;7.8;;;7.0;;
61675;SDS011;47574;52.090;5.244;2023-06-22T08:38:42;10.4;;;6.6;;
61675;SDS011;47574;52.090;5.244;2023-06-22T08:40:19;9.5;;;6.7;;
61675;SDS011;47574;52.090;5.244;2023-06-22T08:41:56;8.2;;;6.4;;
61675;SDS011;47574;52.090;5.244;2023-06-22T08:45:08;8.6;;;7.3;;
61675;SDS011;47574;52.090;5.244;2023-06-22T08:46:45;7.7;;;6.6;;
61675;SDS011;47574;52.090;5.244;2023-06-22T08:48:21;8.1;;;6.3;;
61675;SDS011;47574;52.090;5.244;2023-06-22T08:51:33;7.6;;;5.8;;
61675;SDS011;47574;52.090;5.244;2023-06-22T08:53:10;7.0;;;5.8;;
61675;SDS011;47574;52.090;5.244;2023-06-22T08:54:46;8.4;;;5.5;;
61675;SDS011;47574;52.090;5.244;2023-06-22T08:57:58;7.9;;;4.7;;
61675;SDS011;47574;52.090;5.244;2023-06-22T08:59:34;10.4;;;5.4;;
61675;SDS011;47574;52.090;5.244;2023-06-22T09:01:10;5.6;;;4.5;;
61675;SDS011;47574;52.090;5.244;2023-06-22T09:02:47;11.7;;;5.0;;
61675;SDS011;47574;52.090;5.244;2023-06-22T09:06:00;6.9;;;5.8;;
61675;SDS011;47574;52.090;5.244;2023-06-22T09:07:36;8.2;;;5.7;;
61675;SDS011;47574;52.090;5.244;2023-06-22T09:09:12;6.5;;;5.11;;
61675;SDS011;47574;52.090;5.244;2023-06-22T09:12:26;5.2;;;4.7;;
61675;SDS011;47574;52.090;5.244;2023-06-22T09:14:02;5.11;;;4.41;;
61675;SDS011;47574;52.090;5.244;2023-06-22T09:15:38;5.8;;;4.7;;
61675;SDS011;47574;52.090;5.244;2023-06-22T09:18:50;4.8;;;4.1;;
61675;SDS011;47574;52.090;5.244;2023-06-22T09:20:26;5.5;;;5.0;;
61675;SDS011;47574;52.090;5.244;2023-06-22T09:22:03;5.6;;;5.0;;
61675;SDS011;47574;52.090;5.244;2023-06-22T09:23:39;6.3;;;5.3;;
61675;SDS011;47574;52.090;5.244;2023-06-22T09:26:51;5.11;;;4.61;;
61675;SDS011;47574;52.090;5.244;2023-06-22T09:28:27;6.6;;;4.61;;
61675;SDS011;47574;52.090;5.244;2023-06-22T09:30:04;7.1;;;4.5;;
61675;SDS011;47574;52.090;5.244;2023-06-22T09:33:16;5.11;;;4.61;;
61675;SDS011;47574;52.090;5.244;2023-06-22T09:34:53;6.4;;;3.9;;
61675;SDS011;47574;52.090;5.244;2023-06-22T09:36:29;4.41;;;3.7;;
61675;SDS011;47574;52.090;5.244;2023-06-22T09:39:41;5.2;;;4.2;;
61675;SDS011;47574;52.090;5.244;2023-06-22T09:41:17;5.2;;;4.2;;
61675;SDS011;47574;52.090;5.244;2023-06-22T09:42:53;4.41;;;4.0;;
61675;SDS011;47574;52.090;5.244;2023-06-22T09:46:06;4.41;;;3.9;;
61675;SDS011;47574;52.090;5.244;2023-06-22T09:47:42;3.8;;;3.5;;
61675;SDS011;47574;52.090;5.244;2023-06-22T09:49:18;3.6;;;3.2;;
61675;SDS011;47574;52.090;5.244;2023-06-22T09:50:54;5.0;;;3.0;;
61675;SDS011;47574;52.090;5.244;2023-06-22T09:54:07;5.0;;;3.5;;
61675;SDS011;47574;52.090;5.244;2023-06-22T09:55:43;4.1;;;3.7;;
61675;SDS011;47574;52.090;5.244;2023-06-22T09:57:19;4.91;;;3.6;;
61675;SDS011;47574;52.090;5.244;2023-06-22T10:00:31;3.6;;;3.1;;
61675;SDS011;47574;52.090;5.244;2023-06-22T10:02:07;5.2;;;4.0;;
61675;SDS011;47574;52.090;5.244;2023-06-22T10:03:44;4.1;;;3.7;;
61675;SDS011;47574;52.090;5.244;2023-06-22T10:06:57;6.4;;;3.5;;
61675;SDS011;47574;52.090;5.244;2023-06-22T10:08:33;5.5;;;4.0;;
61675;SDS011;47574;52.090;5.244;2023-06-22T10:10:09;5.0;;;3.4;;
61675;SDS011;47574;52.090;5.244;2023-06-22T10:11:46;4.1;;;3.7;;
61675;SDS011;47574;52.090;5.244;2023-06-22T10:14:58;4.7;;;4.0;;
61675;SDS011;47574;52.090;5.244;2023-06-22T10:16:36;3.7;;;3.4;;
61675;SDS011;47574;52.090;5.244;2023-06-22T10:18:12;5.3;;;3.7;;
61675;SDS011;47574;52.090;5.244;2023-06-22T10:21:24;4.3;;;3.9;;
61675;SDS011;47574;52.090;5.244;2023-06-22T10:23:00;4.1;;;3.6;;
61675;SDS011;47574;52.090;5.244;2023-06-22T10:24:36;4.3;;;4.0;;
61675;SDS011;47574;52.090;5.244;2023-06-22T10:27:49;4.1;;;3.7;;
61675;SDS011;47574;52.090;5.244;2023-06-22T10:29:25;5.3;;;4.3;;
61675;SDS011;47574;52.090;5.244;2023-06-22T10:31:01;5.3;;;4.3;;
61675;SDS011;47574;52.090;5.244;2023-06-22T10:34:14;6.5;;;4.8;;
61675;SDS011;47574;52.090;5.244;2023-06-22T10:35:50;7.0;;;5.7;;
61675;SDS011;47574;52.090;5.244;2023-06-22T10:37:27;8.6;;;6.5;;
61675;SDS011;47574;52.090;5.244;2023-06-22T10:39:03;7.6;;;6.1;;
61675;SDS011;47574;52.090;5.244;2023-06-22T10:42:15;6.7;;;6.0;;
61675;SDS011;47574;52.090;5.244;2023-06-22T10:43:51;8.4;;;6.3;;
61675;SDS011;47574;52.090;5.244;2023-06-22T10:45:27;6.7;;;6.1;;
61675;SDS011;47574;52.090;5.244;2023-06-22T10:48:41;7.4;;;5.7;;
61675;SDS011;47574;52.090;5.244;2023-06-22T10:50:17;10.4;;;6.8;;
61675;SDS011;47574;52.090;5.244;2023-06-22T10:51:54;8.6;;;6.7;;
61675;SDS011;47574;52.090;5.244;2023-06-22T10:55:07;9.71;;;7.3;;
61675;SDS011;47574;52.090;5.244;2023-06-22T10:56:44;9.31;;;7.2;;
61675;SDS011;47574;52.090;5.244;2023-06-22T10:58:20;10.0;;;7.3;;
61675;SDS011;47574;52.090;5.244;2023-06-22T10:59:57;8.9;;;7.0;;
61675;SDS011;47574;52.090;5.244;2023-06-22T11:03:09;7.4;;;6.2;;
61675;SDS011;47574;52.090;5.244;2023-06-22T11:04:45;7.1;;;6.3;;
61675;SDS011;47574;52.090;5.244;2023-06-22T11:06:21;9.9;;;6.2;;
61675;SDS011;47574;52.090;5.244;2023-06-22T11:09:34;11.3;;;7.5;;
61675;SDS011;47574;52.090;5.244;2023-06-22T11:11:10;9.81;;;7.9;;
61675;SDS011;47574;52.090;5.244;2023-06-22T11:12:46;11.4;;;8.4;;
61675;SDS011;47574;52.090;5.244;2023-06-22T11:15:58;9.9;;;8.9;;
61675;SDS011;47574;52.090;5.244;2023-06-22T11:17:35;9.71;;;8.71;;
61675;SDS011;47574;52.090;5.244;2023-06-22T11:19:12;10.5;;;8.81;;
61675;SDS011;47574;52.090;5.244;2023-06-22T11:20:48;10.6;;;8.81;;
61675;SDS011;47574;52.090;5.244;2023-06-22T11:24:00;10.4;;;8.6;;
61675;SDS011;47574;52.090;5.244;2023-06-22T11:25:36;10.7;;;9.6;;
61675;SDS011;47574;52.090;5.244;2023-06-22T11:27:12;11.4;;;9.21;;
61675;SDS011;47574;52.090;5.244;2023-06-22T11:30:25;10.3;;;8.81;;
61675;SDS011;47574;52.090;5.244;2023-06-22T11:32:01;12.7;;;9.9;;
61675;SDS011;47574;52.090;5.244;2023-06-22T11:33:37;11.5;;;9.6;;
61675;SDS011;47574;52.090;5.244;2023-06-22T11:36:49;10.1;;;8.31;;
61675;SDS011;47574;52.090;5.244;2023-06-22T11:38:25;10.1;;;8.0;;
61675;SDS011;47574;52.090;5.244;2023-06-22T11:40:02;11.9;;;8.1;;
61675;SDS011;47574;52.090;5.244;2023-06-22T11:43:15;10.7;;;7.6;;
61675;SDS011;47574;52.090;5.244;2023-06-22T11:44:51;9.4;;;8.1;;
61675;SDS011;47574;52.090;5.244;2023-06-22T11:46:27;9.0;;;7.6;;
61675;SDS011;47574;52.090;5.244;2023-06-22T11:48:04;7.6;;;6.8;;
61675;SDS011;47574;52.090;5.244;2023-06-22T11:51:17;11.5;;;8.0;;
61675;SDS011;47574;52.090;5.244;2023-06-22T11:52:53;8.81;;;7.3;;
61675;SDS011;47574;52.090;5.244;2023-06-22T11:54:29;9.6;;;7.3;;
61675;SDS011;47574;52.090;5.244;2023-06-22T11:57:52;9.1;;;7.2;;
61675;SDS011;47574;52.090;5.244;2023-06-22T11:59:30;8.4;;;6.8;;
61675;SDS011;47574;52.090;5.244;2023-06-22T12:01:06;8.31;;;7.4;;
61675;SDS011;47574;52.090;5.244;2023-06-22T12:02:42;8.6;;;7.4;;
61675;SDS011;47574;52.090;5.244;2023-06-22T12:05:54;8.5;;;6.8;;
61675;SDS011;47574;52.090;5.244;2023-06-22T12:07:30;9.21;;;8.1;;
61675;SDS011;47574;52.090;5.244;2023-06-22T12:09:07;9.1;;;8.2;;
61675;SDS011;47574;52.090;5.244;2023-06-22T12:12:20;12.2;;;8.0;;
61675;SDS011;47574;52.090;5.244;2023-06-22T12:13:56;9.9;;;8.31;;
61675;SDS011;47574;52.090;5.244;2023-06-22T12:15:32;9.81;;;8.4;;
61675;SDS011;47574;52.090;5.244;2023-06-22T12:18:44;13.4;;;8.81;;
61675;SDS011;47574;52.090;5.244;2023-06-22T12:20:21;11.1;;;8.81;;
61675;SDS011;47574;52.090;5.244;2023-06-22T12:21:57;11.7;;;9.21;;
61675;SDS011;47574;52.090;5.244;2023-06-22T12:23:33;11.5;;;9.21;;
61675;SDS011;47574;52.090;5.244;2023-06-22T12:26:46;12.5;;;8.71;;
61675;SDS011;47574;52.090;5.244;2023-06-22T12:28:22;12.8;;;9.71;;
61675;SDS011;47574;52.090;5.244;2023-06-22T12:29:59;13.4;;;8.6;;
61675;SDS011;47574;52.090;5.244;2023-06-22T12:33:11;11.1;;;9.1;;
61675;SDS011;47574;52.090;5.244;2023-06-22T12:34:47;10.6;;;9.0;;
61675;SDS011;47574;52.090;5.244;2023-06-22T12:36:23;10.8;;;9.71;;
61675;SDS011;47574;52.090;5.244;2023-06-22T12:39:36;9.9;;;8.9;;
61675;SDS011;47574;52.090;5.244;2023-06-22T12:41:12;11.0;;;8.6;;
61675;SDS011;47574;52.090;5.244;2023-06-22T12:42:48;9.6;;;8.4;;
61675;SDS011;47574;52.090;5.244;2023-06-22T12:46:00;12.1;;;8.81;;